Time;durP1;ratioP1;P1;durP2;ratioP2;P2;SDS_P1;SDS_P2;PMS_P1;PMS_P2;Temp;Humidity;BMP_temperature;BMP_pressure;BME280_temperature;BME280_humidity;BME280_pressure;Samples;Min_cycle;Max_cycle;Signal;HPM_P1;HPM_P2
2022/02/26 00:01:17;;;;;;;10.30;3.03;;;;;;;0.36;96.55;99734.31;4190756;28;20051;-72
2022/02/26 00:03:17;;;;;;;7.32;2.72;;;;;;;0.45;96.37;99736.16;4187069;28;20048;-72
2022/02/26 00:05:18;;;;;;;12.15;3.00;;;;;;;0.42;96.86;99742.19;4197676;28;20086;-72
2022/02/26 00:07:18;;;;;;;7.15;2.70;;;;;;;0.46;96.44;99745.94;4201151;28;20064;-72
2022/02/26 00:09:19;;;;;;;5.38;2.78;;;;;;;0.46;96.34;99748.69;4201030;28;20258;-72
2022/02/26 00:11:19;;;;;;;8.10;2.53;;;;;;;0.48;96.43;99738.31;4186795;28;20055;-72
2022/02/26 00:13:20;;;;;;;7.35;2.95;;;;;;;0.49;96.64;99752.72;4198949;28;20040;-72
2022/02/26 00:15:21;;;;;;;9.20;2.83;;;;;;;0.56;96.34;99753.25;4192354;28;20509;-72
2022/02/26 00:17:21;;;;;;;10.80;3.83;;;;;;;0.62;96.05;99762.22;4186019;28;20036;-72
2022/02/26 00:19:22;;;;;;;4.35;2.80;;;;;;;0.61;96.38;99769.56;4199968;28;20062;-72
2022/02/26 00:21:23;;;;;;;9.07;2.50;;;;;;;0.65;95.72;99767.09;4201538;28;20044;-72
2022/02/26 00:23:23;;;;;;;6.25;2.60;;;;;;;0.69;95.53;99765.44;4195147;28;20051;-72
2022/02/26 00:25:23;;;;;;;8.70;2.90;;;;;;;0.71;95.17;99771.41;4194224;28;20044;-72
2022/02/26 00:27:24;;;;;;;8.75;2.85;;;;;;;0.73;95.32;99761.84;4200921;28;20067;-72
2022/02/26 00:29:24;;;;;;;8.85;3.08;;;;;;;0.72;95.27;99762.16;4186863;28;20670;-72
2022/02/26 00:31:25;;;;;;;7.32;2.95;;;;;;;0.71;94.82;99760.53;4186494;28;20048;-72
2022/02/26 00:33:25;;;;;;;5.68;2.95;;;;;;;0.67;94.89;99760.28;4186622;28;20063;-72
2022/02/26 00:35:25;;;;;;;10.15;3.00;;;;;;;0.72;94.43;99762.16;4186574;28;20532;-72
2022/02/26 00:37:26;;;;;;;8.65;2.30;;;;;;;0.73;94.08;99767.31;4185537;28;20074;-72
2022/02/26 00:39:26;;;;;;;7.93;2.90;;;;;;;0.68;94.19;99761.91;4186249;28;20041;-72
2022/02/26 00:41:26;;;;;;;7.50;2.80;;;;;;;0.61;94.67;99758.69;4192258;28;20047;-72
2022/02/26 00:43:27;;;;;;;8.25;2.97;;;;;;;0.62;94.70;99765.75;4196577;28;20037;-73
2022/02/26 00:45:27;;;;;;;9.52;3.17;;;;;;;0.64;94.74;99760.81;4186169;28;20090;-72
2022/02/26 00:47:28;;;;;;;12.88;3.00;;;;;;;0.63;95.13;99764.66;4185325;28;20425;-72
2022/02/26 00:51:47;;;;;;;18.35;3.40;;;;;;;0.62;94.80;99775.84;4199034;28;20487;-72
2022/02/26 00:53:47;;;;;;;14.02;3.22;;;;;;;0.75;93.92;99772.50;4186222;28;20049;-72
2022/02/26 00:55:48;;;;;;;8.93;3.15;;;;;;;0.72;93.92;99775.75;4192344;28;20063;-72
2022/02/26 00:57:48;;;;;;;8.63;2.78;;;;;;;0.70;93.38;99776.06;4190621;28;20299;-72
2022/02/26 00:59:49;;;;;;;13.18;2.65;;;;;;;0.69;93.00;99773.63;4185573;28;20045;-72
2022/02/26 01:01:49;;;;;;;14.52;3.05;;;;;;;0.67;93.72;99783.97;4196428;28;20059;-72
2022/02/26 01:03:50;;;;;;;8.68;2.60;;;;;;;0.73;92.38;99775.47;4200612;28;20051;-72
2022/02/26 01:05:50;;;;;;;16.13;3.17;;;;;;;0.71;91.89;99774.13;4199878;28;20445;-72
2022/02/26 01:07:50;;;;;;;8.77;2.85;;;;;;;0.77;91.72;99786.66;4201345;28;20071;-72
2022/02/26 01:09:51;;;;;;;12.75;2.90;;;;;;;0.77;90.77;99783.91;4198106;28;20075;-72
2022/02/26 01:11:51;;;;;;;9.88;2.92;;;;;;;0.87;89.20;99783.03;4188601;28;20044;-72
2022/02/26 01:13:51;;;;;;;9.30;2.58;;;;;;;0.80;89.64;99783.34;4188983;28;20319;-72
2022/02/26 01:15:51;;;;;;;7.65;2.65;;;;;;;0.88;88.40;99792.84;4186009;28;20036;-72
2022/02/26 01:17:52;;;;;;;7.97;2.25;;;;;;;0.93;87.19;99787.38;4185493;28;20072;-72
2022/02/26 01:19:52;;;;;;;11.30;3.05;;;;;;;0.95;87.23;99793.34;4185757;28;20399;-72
2022/02/26 01:21:53;;;;;;;8.60;2.25;;;;;;;0.96;86.62;99790.31;4197163;28;20040;-72
2022/02/26 01:23:53;;;;;;;10.82;2.83;;;;;;;1.01;86.15;99797.66;4200820;28;20376;-72
2022/02/26 01:25:54;;;;;;;7.88;2.28;;;;;;;0.99;87.20;99799.84;4198723;28;20040;-72
2022/02/26 01:27:54;;;;;;;11.77;3.08;;;;;;;0.96;88.24;99797.69;4188408;28;20476;-72
2022/02/26 01:29:55;;;;;;;15.65;3.92;;;;;;;0.88;88.70;99804.56;4188847;28;20311;-72
2022/02/26 01:31:55;;;;;;;13.05;2.65;;;;;;;0.77;89.82;99801.06;4196002;28;20420;-72
2022/02/26 01:33:56;;;;;;;9.65;2.60;;;;;;;0.76;90.33;99801.38;4202910;28;20450;-72
2022/02/26 01:35:57;;;;;;;15.45;2.75;;;;;;;0.65;91.19;99814.22;4204950;28;20123;-72
2022/02/26 01:37:57;;;;;;;14.02;2.83;;;;;;;0.59;91.45;99812.63;4203353;28;20055;-72
2022/02/26 01:39:57;;;;;;;9.05;2.47;;;;;;;0.55;91.64;99819.72;4204025;28;20260;-72
2022/02/26 01:41:58;;;;;;;9.65;2.72;;;;;;;0.56;91.69;99811.25;4194060;28;20098;-72
2022/02/26 01:43:59;;;;;;;14.48;2.83;;;;;;;0.52;91.61;99818.38;4193087;28;20051;-72
2022/02/26 01:46:01;;;;;;;5.80;2.30;;;;;;;0.48;91.38;99816.47;4199606;28;20033;-72
2022/02/26 01:48:01;;;;;;;9.93;2.55;;;;;;;0.41;91.65;99814.03;4187751;28;20044;-73
2022/02/26 01:50:03;;;;;;;11.90;2.83;;;;;;;0.40;91.64;99803.44;4189007;28;20036;-72
2022/02/26 01:52:03;;;;;;;16.15;5.95;;;;;;;0.34;92.39;99813.53;4192400;28;20127;-73
2022/02/26 01:54:04;;;;;;;13.75;4.03;;;;;;;0.35;92.29;99811.63;4202956;28;20062;-72
2022/02/26 01:56:06;;;;;;;17.95;6.10;;;;;;;0.28;92.36;99820.91;4188987;28;20025;-73
2022/02/26 01:58:06;;;;;;;11.18;5.53;;;;;;;0.26;91.97;99811.41;4198205;28;20519;-72
2022/02/26 02:00:09;;;;;;;9.88;3.60;;;;;;;0.25;92.24;99809.78;4199093;28;20511;-72
2022/02/26 02:02:09;;;;;;;14.82;2.97;;;;;;;0.17;92.53;99811.16;4188291;28;20036;-72
2022/02/26 02:04:10;;;;;;;8.70;2.88;;;;;;;0.10;92.95;99807.09;4188930;28;20503;-72
2022/02/26 02:06:12;;;;;;;5.50;2.63;;;;;;;0.12;92.62;99808.44;4188369;28;20044;-72
2022/02/26 02:08:12;;;;;;;9.02;2.92;;;;;;;0.08;93.03;99806.53;4187859;28;20016;-72
2022/02/26 02:10:12;;;;;;;7.82;2.80;;;;;;;0.13;92.56;99809.25;4189306;28;20342;-72
2022/02/26 02:12:13;;;;;;;14.75;2.78;;;;;;;0.14;92.42;99813.59;4192948;28;20115;-73
2022/02/26 02:14:13;;;;;;;10.70;3.05;;;;;;;0.25;91.45;99816.03;4202953;28;20455;-72
2022/02/26 02:16:17;;;;;;;9.07;2.63;;;;;;;0.36;91.06;99819.53;4200247;28;20445;-72
2022/02/26 02:18:18;;;;;;;11.95;2.35;;;;;;;0.43;90.12;99811.06;4190946;28;20094;-72
2022/02/26 02:20:18;;;;;;;15.15;4.03;;;;;;;0.49;89.60;99815.38;4188524;28;20457;-72
2022/02/26 02:22:20;;;;;;;12.68;2.40;;;;;;;0.61;88.58;99813.16;4188272;28;20032;-72
2022/02/26 02:24:21;;;;;;;8.65;2.75;;;;;;;0.67;87.93;99817.50;4192960;28;20048;-72
2022/02/26 02:26:21;;;;;;;9.80;2.67;;;;;;;0.65;88.06;99816.13;4188643;28;20044;-72
2022/02/26 02:28:23;;;;;;;14.75;2.50;;;;;;;0.69;88.04;99818.00;4186103;28;20064;-72
2022/02/26 02:30:25;;;;;;;12.30;2.60;;;;;;;0.68;87.28;99818.28;4188358;28;20044;-72
2022/02/26 02:32:26;;;;;;;9.23;2.45;;;;;;;0.66;87.80;99815.81;4192203;28;20032;-72
2022/02/26 02:34:26;;;;;;;12.55;2.72;;;;;;;0.67;87.90;99827.56;4188553;28;20044;-72
2022/02/26 02:36:27;;;;;;;10.68;3.08;;;;;;;0.64;87.95;99828.91;4187814;28;20078;-72
2022/02/26 02:38:28;;;;;;;11.30;2.50;;;;;;;0.62;87.98;99828.41;4186707;28;20488;-72
2022/02/26 02:40:28;;;;;;;11.70;4.40;;;;;;;0.61;87.73;99828.69;4188372;28;20483;-72
2022/02/26 02:42:28;;;;;;;8.50;2.50;;;;;;;0.66;87.72;99823.19;4187893;28;20036;-72
2022/02/26 02:44:29;;;;;;;9.38;2.30;;;;;;;0.72;87.26;99833.78;4188033;28;20284;-72
2022/02/26 02:46:29;;;;;;;11.57;3.05;;;;;;;0.80;86.87;99838.66;4187671;28;20049;-72
2022/02/26 02:48:29;;;;;;;9.80;2.70;;;;;;;0.73;87.15;99835.41;4187318;28;20059;-72
2022/02/26 02:50:30;;;;;;;18.40;3.35;;;;;;;0.71;86.78;99842.25;4192030;28;20036;-72
2022/02/26 02:52:30;;;;;;;13.05;2.97;;;;;;;0.71;87.10;99844.97;4201739;28;20135;-72
2022/02/26 02:54:31;;;;;;;9.15;2.67;;;;;;;0.67;87.66;99847.44;4188252;28;20041;-72
2022/02/26 02:56:31;;;;;;;13.57;3.00;;;;;;;0.64;87.72;99847.19;4187570;28;20048;-72
2022/02/26 02:58:31;;;;;;;12.80;2.50;;;;;;;0.62;88.02;99846.66;4189673;28;20044;-72
2022/02/26 03:00:32;;;;;;;12.35;3.38;;;;;;;0.59;88.54;99855.38;4190165;28;20452;-72
2022/02/26 03:02:32;;;;;;;11.60;2.95;;;;;;;0.57;88.59;99844.75;4202096;28;20044;-72
2022/02/26 03:04:33;;;;;;;6.15;2.38;;;;;;;0.59;88.37;99847.22;4188081;28;20045;-72
2022/02/26 03:06:34;;;;;;;5.93;2.03;;;;;;;0.57;88.38;99845.56;4187339;28;20045;-72
2022/02/26 03:08:34;;;;;;;13.85;2.83;;;;;;;0.66;88.32;99851.25;4191527;28;20040;-72
2022/02/26 03:10:35;;;;;;;9.32;2.90;;;;;;;0.59;88.61;99860.84;4193247;28;20595;-72
2022/02/26 03:12:36;;;;;;;11.10;3.10;;;;;;;0.52;89.23;99861.13;4193979;28;20745;-72
2022/02/26 03:14:37;;;;;;;11.55;3.38;;;;;;;0.53;89.38;99857.31;4187745;28;20119;-72
2022/02/26 03:16:37;;;;;;;10.05;2.83;;;;;;;0.53;89.41;99862.75;4186851;28;20106;-72
2022/02/26 03:18:38;;;;;;;13.02;2.95;;;;;;;0.52;89.12;99861.94;4187409;28;20040;-72
2022/02/26 03:20:38;;;;;;;7.47;2.63;;;;;;;0.60;89.00;99867.91;4187941;28;20384;-72
2022/02/26 03:22:39;;;;;;;11.50;2.85;;;;;;;0.60;88.57;99873.34;4186973;28;20507;-72
2022/02/26 03:24:39;;;;;;;18.38;3.10;;;;;;;0.61;88.60;99872.25;4187467;28;20129;-72
2022/02/26 03:26:40;;;;;;;12.18;2.70;;;;;;;0.71;88.47;99881.19;4186425;28;20117;-72
2022/02/26 03:28:40;;;;;;;10.60;2.53;;;;;;;0.68;88.52;99879.03;4187253;28;20036;-72
2022/02/26 03:30:40;;;;;;;10.77;2.17;;;;;;;0.64;88.86;99877.13;4186982;28;20037;-72
2022/02/26 03:32:41;;;;;;;10.45;2.33;;;;;;;0.63;89.00;99884.50;4195111;28;20450;-72
2022/02/26 03:34:41;;;;;;;11.45;2.92;;;;;;;0.63;89.39;99892.66;4203580;28;20036;-72
2022/02/26 03:36:41;;;;;;;8.32;2.30;;;;;;;0.67;89.09;99888.31;4201651;28;20036;-72
2022/02/26 03:38:42;;;;;;;9.82;3.35;;;;;;;0.68;88.67;99892.66;4201536;28;20071;-72
2022/02/26 03:40:42;;;;;;;5.88;2.90;;;;;;;0.68;89.22;99895.38;4201979;28;20129;-73
2022/02/26 03:42:43;;;;;;;5.35;2.25;;;;;;;0.67;89.06;99903.84;4191419;28;20486;-72
2022/02/26 03:44:47;;;;;;;11.95;2.75;;;;;;;0.66;89.10;99896.72;4190916;28;20039;-72
2022/02/26 03:46:47;;;;;;;9.52;2.78;;;;;;;0.71;89.20;99897.53;4186440;28;20064;-73
2022/02/26 03:48:47;;;;;;;7.47;3.90;;;;;;;0.75;89.15;99903.25;4202878;28;20475;-72
2022/02/26 03:50:47;;;;;;;6.50;2.45;;;;;;;0.67;89.80;99895.66;4188286;28;20044;-72
2022/02/26 03:52:48;;;;;;;5.63;2.00;;;;;;;0.70;89.30;99911.44;4186949;28;20448;-72
2022/02/26 03:54:48;;;;;;;8.52;2.35;;;;;;;0.70;88.86;99911.44;4187028;28;20163;-72
2022/02/26 03:56:49;;;;;;;11.95;2.65;;;;;;;0.75;89.00;99916.88;4186096;28;20055;-72
2022/02/26 03:58:51;;;;;;;7.53;2.35;;;;;;;0.75;88.33;99914.16;4186661;28;20088;-73
2022/02/26 04:00:51;;;;;;;14.30;3.10;;;;;;;0.85;87.65;99922.28;4186116;28;20036;-72
2022/02/26 04:02:51;;;;;;;6.28;2.25;;;;;;;0.88;87.45;99915.47;4194301;28;20047;-73
2022/02/26 04:04:52;;;;;;;8.88;2.35;;;;;;;0.86;86.56;99926.63;4188265;28;20119;-72
2022/02/26 04:06:54;;;;;;;12.55;2.33;;;;;;;0.91;86.29;99932.09;4185860;28;20036;-73
2022/02/26 04:08:55;;;;;;;15.60;2.90;;;;;;;1.00;85.84;99927.69;4192866;28;20040;-72
2022/02/26 04:10:55;;;;;;;6.88;1.88;;;;;;;0.98;85.80;99932.56;4191180;28;20036;-72
2022/02/26 04:12:55;;;;;;;5.15;1.75;;;;;;;0.98;85.34;99940.75;4193707;28;20044;-72
2022/02/26 04:14:55;;;;;;;9.40;2.97;;;;;;;1.11;83.29;99940.16;4201051;28;20325;-72
2022/02/26 04:16:56;;;;;;;8.82;2.03;;;;;;;1.16;83.60;99941.22;4201094;28;20535;-72
2022/02/26 04:18:56;;;;;;;10.98;1.83;;;;;;;1.18;83.29;99944.50;4195631;28;20409;-72
2022/02/26 04:20:56;;;;;;;12.18;2.78;;;;;;;1.13;82.76;99937.97;4192398;28;20060;-72
2022/02/26 04:22:57;;;;;;;7.53;1.67;;;;;;;1.16;83.00;99946.66;4190214;28;20036;-72
2022/02/26 04:24:57;;;;;;;6.93;2.28;;;;;;;1.19;82.35;99946.13;4186577;28;20647;-72
2022/02/26 04:26:57;;;;;;;10.10;2.25;;;;;;;1.17;82.40;99954.59;4185513;28;20480;-72
2022/02/26 04:28:58;;;;;;;9.65;2.30;;;;;;;1.18;81.93;99956.22;4186563;28;20495;-72
2022/02/26 04:30:58;;;;;;;9.38;2.15;;;;;;;1.25;81.22;99964.91;4186298;28;20045;-72
2022/02/26 04:32:59;;;;;;;9.75;1.88;;;;;;;1.29;81.50;99954.25;4186537;28;20040;-72
2022/02/26 04:35:00;;;;;;;13.80;2.63;;;;;;;1.33;81.11;99960.78;4190650;28;20304;-72
2022/02/26 04:37:01;;;;;;;9.00;2.42;;;;;;;1.31;81.42;99961.03;4191563;28;20460;-73
2022/02/26 04:39:02;;;;;;;7.32;2.55;;;;;;;1.33;80.63;99974.41;4186362;28;20067;-72
2022/02/26 04:41:03;;;;;;;11.65;2.40;;;;;;;1.44;79.15;99975.97;4186289;28;20382;-72
2022/02/26 04:43:04;;;;;;;10.13;2.40;;;;;;;1.47;78.84;99977.31;4186462;28;20198;-72
2022/02/26 04:45:06;;;;;;;10.15;2.20;;;;;;;1.41;79.12;99982.00;4186060;28;20385;-72
2022/02/26 04:47:07;;;;;;;12.10;3.80;;;;;;;1.39;79.80;99978.72;4185848;28;20133;-72
2022/02/26 04:49:07;;;;;;;14.75;2.78;;;;;;;1.41;80.00;99973.81;4186384;28;20048;-72
2022/02/26 04:51:08;;;;;;;13.35;3.53;;;;;;;1.49;79.77;99975.13;4186239;28;20741;-72
2022/02/26 04:53:08;;;;;;;8.75;2.42;;;;;;;1.42;80.58;99980.91;4186507;28;20044;-73
2022/02/26 04:55:10;;;;;;;11.70;2.30;;;;;;;1.35;81.07;99977.66;4185875;28;20131;-72
2022/02/26 04:57:11;;;;;;;8.95;2.05;;;;;;;1.33;80.92;99977.94;4185419;28;20415;-73
2022/02/26 04:59:11;;;;;;;16.77;3.08;;;;;;;1.30;81.40;99978.50;4186175;28;20163;-73
2022/02/26 05:01:12;;;;;;;15.73;2.83;;;;;;;1.43;81.03;99976.25;4195330;28;20444;-72
2022/02/26 05:03:12;;;;;;;9.05;2.40;;;;;;;1.38;81.74;99968.91;4200750;28;20071;-72
2022/02/26 05:05:12;;;;;;;11.68;2.42;;;;;;;1.31;81.92;99982.03;4201557;28;20085;-72
2022/02/26 05:07:15;;;;;;;9.82;2.70;;;;;;;1.35;81.56;99966.75;4200627;28;20040;-72
2022/02/26 05:09:15;;;;;;;;;;;;;;;1.32;81.65;99975.47;4189395;28;20388;-72
2022/02/26 05:11:16;;;;;;;8.73;2.47;;;;;;;1.23;82.66;99980.72;4187097;28;19920;-72
2022/02/26 05:13:16;;;;;;;11.15;2.50;;;;;;;1.09;83.71;99977.78;4199212;28;20377;-73
2022/02/26 05:15:17;;;;;;;9.60;2.15;;;;;;;1.03;83.85;99970.72;4187533;28;20094;-72
2022/02/26 05:17:17;;;;;;;6.72;2.13;;;;;;;1.01;84.78;99981.09;4185676;28;20372;-72
2022/02/26 05:19:17;;;;;;;16.00;2.85;;;;;;;0.98;84.99;99986.25;4186272;28;20468;-72
2022/02/26 05:21:18;;;;;;;12.38;2.40;;;;;;;0.91;85.65;99981.13;4186130;28;20411;-73
2022/02/26 05:23:18;;;;;;;10.00;2.17;;;;;;;0.89;85.60;99987.94;4190798;28;20072;-72
2022/02/26 05:25:18;;;;;;;14.07;2.50;;;;;;;0.82;86.14;99991.75;4187198;28;20049;-72
2022/02/26 05:27:19;;;;;;;15.57;2.33;;;;;;;0.78;86.15;99982.53;4192525;28;20059;-72
2022/02/26 05:29:22;;;;;;;7.68;2.28;;;;;;;0.71;86.31;99978.44;4193736;28;20040;-72
2022/02/26 05:31:22;;;;;;;10.60;2.08;;;;;;;0.71;86.12;99984.72;4186008;28;20048;-72
2022/02/26 05:33:22;;;;;;;11.50;2.20;;;;;;;0.63;86.69;99977.09;4185922;28;20495;-72
2022/02/26 05:35:23;;;;;;;8.05;3.22;;;;;;;0.64;86.56;99989.63;4185648;28;20389;-73
2022/02/26 05:37:23;;;;;;;9.57;2.55;;;;;;;0.58;86.76;99993.47;4185169;28;20142;-73
2022/02/26 05:39:24;;;;;;;9.60;2.33;;;;;;;0.56;86.58;99998.38;4186329;28;20055;-72
2022/02/26 05:41:24;;;;;;;8.10;2.20;;;;;;;0.54;86.65;99992.38;4185210;28;20102;-72
2022/02/26 05:43:25;;;;;;;16.52;2.60;;;;;;;0.52;86.96;100003.56;4186035;28;20487;-72
2022/02/26 05:45:25;;;;;;;12.65;3.05;;;;;;;0.43;87.38;99997.03;4198741;28;20048;-72
2022/02/26 05:47:25;;;;;;;7.72;2.28;;;;;;;0.41;87.47;100001.09;4200017;28;20411;-73
2022/02/26 05:49:26;;;;;;;9.23;2.63;;;;;;;0.37;87.50;100000.84;4188487;28;20131;-73
2022/02/26 05:51:26;;;;;;;9.82;2.28;;;;;;;0.34;87.65;100015.03;4201109;28;20044;-73
2022/02/26 05:53:28;;;;;;;7.60;2.83;;;;;;;0.34;87.48;100016.94;4199729;28;20418;-72
2022/02/26 05:55:28;;;;;;;4.95;2.30;;;;;;;0.26;88.45;100018.28;4200532;28;20054;-72
2022/02/26 05:57:28;;;;;;;6.07;2.17;;;;;;;0.20;88.30;100027.53;4199935;28;20142;-72
2022/02/26 05:59:29;;;;;;;10.90;2.80;;;;;;;0.22;88.92;100030.78;4201597;28;20087;-73
2022/02/26 06:01:29;;;;;;;6.88;2.38;;;;;;;0.14;89.13;100034.88;4200772;28;20563;-73
2022/02/26 06:03:30;;;;;;;10.45;2.55;;;;;;;0.12;89.72;100031.63;4192757;28;20068;-73
2022/02/26 06:05:30;;;;;;;7.20;2.17;;;;;;;0.06;90.12;100034.59;4186009;28;20044;-73
2022/02/26 06:07:30;;;;;;;7.05;2.60;;;;;;;0.05;90.07;100039.22;4184426;28;20037;-73
2022/02/26 06:09:30;;;;;;;9.23;2.78;;;;;;;0.08;90.16;100052.28;4185715;28;20059;-73
2022/02/26 06:11:31;;;;;;;13.85;4.25;;;;;;;0.07;90.47;100049.84;4185933;28;20112;-73
2022/02/26 06:13:31;;;;;;;11.52;3.55;;;;;;;0.07;90.16;100060.72;4201340;28;20037;-73
2022/02/26 06:15:31;;;;;;;12.13;3.65;;;;;;;0.12;90.36;100072.44;4203974;28;20068;-73
2022/02/26 06:17:32;;;;;;;7.38;2.80;;;;;;;0.11;90.22;100070.81;4201775;28;20037;-73
2022/02/26 06:19:32;;;;;;;9.82;3.35;;;;;;;0.08;90.21;100074.06;4204406;28;20056;-73
2022/02/26 06:21:33;;;;;;;8.45;3.08;;;;;;;0.12;90.25;100074.34;4203177;28;20047;-73
2022/02/26 06:23:33;;;;;;;13.63;3.20;;;;;;;0.18;90.08;100067.81;4202185;28;20036;-73
2022/02/26 06:25:34;;;;;;;16.15;4.13;;;;;;;0.17;90.34;100077.09;4195287;28;20408;-73
2022/02/26 06:27:39;;;;;;;18.05;3.53;;;;;;;0.18;90.06;100082.25;4186934;28;20130;-73
2022/02/26 06:29:39;;;;;;;6.78;3.05;;;;;;;0.19;90.09;100089.31;4188141;28;20089;-73
2022/02/26 06:31:40;;;;;;;7.00;2.50;;;;;;;0.21;89.79;100083.59;4187786;28;20491;-73
2022/02/26 06:33:40;;;;;;;9.48;2.83;;;;;;;0.23;89.64;100084.16;4188553;28;20049;-73
2022/02/26 06:35:41;;;;;;;14.68;3.80;;;;;;;0.26;89.64;100089.06;4195061;28;20040;-72
2022/02/26 06:37:41;;;;;;;8.52;3.10;;;;;;;0.26;89.12;100086.34;4193283;28;20167;-73
2022/02/26 06:39:42;;;;;;;11.70;3.25;;;;;;;0.35;88.57;100097.50;4188286;28;20053;-73
2022/02/26 06:41:42;;;;;;;11.32;3.25;;;;;;;0.39;88.74;100106.75;4187235;28;20071;-72
2022/02/26 06:43:42;;;;;;;13.57;3.78;;;;;;;0.45;87.52;100098.31;4132665;28;20090;-73
2022/02/26 06:45:43;;;;;;;11.23;3.67;;;;;;;0.45;87.37;100092.88;4189327;28;20097;-73
2022/02/26 06:47:43;;;;;;;11.52;3.05;;;;;;;0.50;87.45;100102.97;4187035;28;20111;-73
2022/02/26 06:49:44;;;;;;;12.40;3.88;;;;;;;0.57;86.55;100100.78;4193081;28;20056;-72
2022/02/26 06:51:44;;;;;;;14.98;3.97;;;;;;;0.67;85.97;100102.69;4187638;28;20385;-72
2022/02/26 06:53:45;;;;;;;13.48;3.20;;;;;;;0.64;85.84;100098.59;4187763;28;20087;-73
2022/02/26 06:55:46;;;;;;;15.75;3.30;;;;;;;0.65;85.83;100104.84;4187732;28;20044;-73
2022/02/26 06:57:46;;;;;;;13.70;3.70;;;;;;;0.66;85.98;100104.56;4187179;28;20037;-72
2022/02/26 06:59:47;;;;;;;10.27;2.95;;;;;;;0.65;85.58;100105.66;4187692;28;20060;-72
2022/02/26 07:01:49;;;;;;;10.40;2.95;;;;;;;0.68;85.35;100104.31;4194317;28;20472;-72
2022/02/26 07:03:50;;;;;;;11.73;3.33;;;;;;;0.67;85.79;100108.97;4187675;28;20507;-72
2022/02/26 07:05:50;;;;;;;12.93;4.45;;;;;;;0.60;85.88;100107.59;4187270;28;20049;-72
2022/02/26 07:07:50;;;;;;;15.02;3.90;;;;;;;0.53;86.08;100114.13;4186611;28;20053;-72
2022/02/26 07:09:52;;;;;;;15.77;4.35;;;;;;;0.50;86.41;100117.41;4188180;28;20036;-72
2022/02/26 07:11:52;;;;;;;22.85;5.13;;;;;;;0.51;86.37;100127.22;4190069;28;20029;-72
2022/02/26 07:13:52;;;;;;;11.95;4.95;;;;;;;0.53;86.44;100122.28;4203159;28;20302;-72
2022/02/26 07:15:53;;;;;;;10.93;4.50;;;;;;;0.53;86.49;100121.47;4202914;28;20366;-72
2022/02/26 07:17:53;;;;;;;11.27;4.68;;;;;;;0.55;85.91;100128.28;4201670;28;20067;-72
2022/02/26 07:19:53;;;;;;;15.15;4.25;;;;;;;0.54;86.45;100129.38;4202810;28;20048;-72
2022/02/26 07:21:57;;;;;;;11.40;4.15;;;;;;;0.59;86.88;100125.84;4191558;28;20434;-72
2022/02/26 07:23:58;;;;;;;19.55;5.90;;;;;;;0.55;86.40;100128.28;4190177;28;20135;-72
2022/02/26 07:26:00;;;;;;;14.30;6.25;;;;;;;0.52;86.82;100131.56;4189559;28;20041;-72
2022/02/26 07:28:00;;;;;;;10.77;3.92;;;;;;;0.48;87.64;100140.53;4190142;28;20072;-72
2022/02/26 07:30:00;;;;;;;14.55;4.60;;;;;;;0.44;87.81;100134.00;4191269;28;20032;-72
2022/02/26 07:32:01;;;;;;;13.80;4.10;;;;;;;0.45;87.68;100147.34;4190385;28;20090;-73
2022/02/26 07:34:01;;;;;;;11.13;3.65;;;;;;;0.45;87.91;100141.91;4186972;28;20313;-73
2022/02/26 07:36:03;;;;;;;16.70;3.60;;;;;;;0.48;88.44;100149.53;4198429;28;20119;-72
2022/02/26 07:38:04;;;;;;;10.27;3.90;;;;;;;0.50;88.67;100146.56;4200791;28;20487;-72
2022/02/26 07:40:05;;;;;;;11.73;3.53;;;;;;;0.57;88.17;100147.06;4198387;28;20278;-73
2022/02/26 07:42:06;;;;;;;13.85;3.47;;;;;;;0.64;88.08;100138.63;4187329;28;20362;-72
2022/02/26 07:44:07;;;;;;;10.32;2.97;;;;;;;0.63;88.30;100137.00;4187122;28;20043;-73
2022/02/26 07:46:07;;;;;;;10.95;3.35;;;;;;;0.63;88.29;100139.72;4186814;28;20040;-73
2022/02/26 07:48:08;;;;;;;10.13;3.75;;;;;;;0.65;88.90;100151.97;4198530;28;20384;-73
2022/02/26 07:50:09;;;;;;;10.38;3.17;;;;;;;0.73;88.76;100139.72;4202564;28;20032;-73
2022/02/26 07:52:09;;;;;;;16.38;5.10;;;;;;;0.77;88.88;100149.00;4201239;28;20559;-73
2022/02/26 07:54:09;;;;;;;13.00;3.67;;;;;;;0.82;88.97;100152.53;4202261;28;20064;-73
2022/02/26 07:56:10;;;;;;;12.45;3.03;;;;;;;0.95;88.59;100158.53;4188860;28;20032;-73
2022/02/26 07:58:11;;;;;;;10.63;2.67;;;;;;;1.07;88.03;100146.22;4186561;28;20036;-73
2022/02/26 08:00:12;;;;;;;15.52;3.47;;;;;;;1.16;87.05;100151.13;4186614;28;20396;-72
2022/02/26 08:02:12;;;;;;;13.02;2.72;;;;;;;1.23;87.08;100159.84;4186638;28;20031;-73
2022/02/26 08:04:12;;;;;;;15.02;2.30;;;;;;;1.27;85.28;100161.75;4186941;28;20025;-72
2022/02/26 08:06:13;;;;;;;14.20;3.13;;;;;;;1.33;84.63;100157.94;4185768;28;20107;-73
2022/02/26 08:08:13;;;;;;;13.75;2.15;;;;;;;1.52;83.12;100171.78;4191820;28;20031;-72
2022/02/26 08:10:14;;;;;;;15.18;2.53;;;;;;;1.58;82.34;100165.25;4186453;28;20033;-73
2022/02/26 08:12:14;;;;;;;10.50;2.60;;;;;;;1.67;81.45;100176.41;4188347;28;20297;-73
2022/02/26 08:14:15;;;;;;;11.68;2.20;;;;;;;1.79;80.41;100174.16;4190307;28;20136;-72
2022/02/26 08:16:15;;;;;;;7.22;2.47;;;;;;;1.81;79.50;100179.34;4187610;28;20032;-73
2022/02/26 08:18:15;;;;;;;8.52;3.13;;;;;;;1.84;79.83;100178.78;4184971;28;20039;-72
2022/02/26 08:20:18;;;;;;;9.48;2.20;;;;;;;1.84;79.37;100173.34;4184188;28;20060;-73
2022/02/26 08:22:19;;;;;;;17.38;2.72;;;;;;;1.90;78.74;100181.22;4185210;28;20480;-72
2022/02/26 08:24:19;;;;;;;18.52;3.40;;;;;;;1.92;78.92;100186.41;4185537;28;20037;-72
2022/02/26 08:26:20;;;;;;;8.55;2.78;;;;;;;2.01;78.61;100190.19;4189080;28;20036;-72
2022/02/26 08:28:20;;;;;;;8.35;2.88;;;;;;;1.95;78.17;100192.09;4188660;28;20090;-72
2022/02/26 08:30:21;;;;;;;10.65;3.08;;;;;;;2.01;78.33;100184.72;4186246;28;20314;-72
2022/02/26 08:32:22;;;;;;;11.38;2.83;;;;;;;2.04;78.64;100186.88;4186363;28;20072;-72
2022/02/26 08:34:22;;;;;;;7.35;2.97;;;;;;;2.07;79.85;100196.41;4185954;28;20041;-72
2022/02/26 08:36:23;;;;;;;8.35;2.30;;;;;;;2.09;77.98;100194.25;4185704;28;20041;-72
2022/02/26 08:38:23;;;;;;;11.63;3.20;;;;;;;2.13;78.25;100200.75;4186102;28;20041;-72
2022/02/26 08:40:24;;;;;;;12.48;2.17;;;;;;;2.23;77.38;100201.56;4186000;28;20395;-72
2022/02/26 08:42:25;;;;;;;10.25;3.22;;;;;;;2.27;77.85;100198.25;4186567;28;20379;-72
2022/02/26 08:44:26;;;;;;;7.97;2.67;;;;;;;2.29;78.44;100207.78;4186439;28;20047;-73
2022/02/26 08:46:27;;;;;;;16.52;7.03;;;;;;;2.33;76.69;100200.69;4197735;28;20036;-72
2022/02/26 08:48:27;;;;;;;17.48;10.00;;;;;;;2.38;77.15;100199.81;4199868;28;20109;-72
2022/02/26 08:50:28;;;;;;;13.98;4.53;;;;;;;2.45;76.81;100208.53;4201986;28;20039;-72
2022/02/26 08:52:28;;;;;;;14.63;4.40;;;;;;;2.61;76.89;100206.50;4195489;28;20062;-72
2022/02/26 08:54:30;;;;;;;13.00;3.88;;;;;;;2.54;76.79;100210.38;4186070;28;20119;-72
2022/02/26 08:56:30;;;;;;;17.48;4.90;;;;;;;2.47;75.76;100206.31;4183605;28;20049;-73
2022/02/26 08:58:30;;;;;;;14.00;3.92;;;;;;;2.49;76.65;100204.97;4185892;28;20292;-73
2022/02/26 09:00:31;;;;;;;19.63;5.50;;;;;;;2.57;76.12;100211.75;4185083;28;20485;-73
2022/02/26 09:02:31;;;;;;;18.98;5.63;;;;;;;2.69;76.15;100217.66;4185667;28;20047;-72
2022/02/26 09:04:32;;;;;;;22.73;7.45;;;;;;;2.75;76.37;100222.00;4186682;28;20102;-73
2022/02/26 09:06:33;;;;;;;24.52;7.72;;;;;;;2.57;75.91;100224.59;4189463;28;20055;-73
2022/02/26 09:08:35;;;;;;;20.02;5.72;;;;;;;2.51;75.71;100218.31;4189834;28;20054;-72
2022/02/26 09:10:37;;;;;;;22.30;7.75;;;;;;;2.46;77.27;100230.09;4190344;28;20387;-73
2022/02/26 09:12:37;;;;;;;15.32;4.40;;;;;;;2.60;76.13;100235.75;4192281;28;20055;-72
2022/02/26 09:14:37;;;;;;;9.05;3.17;;;;;;;2.69;76.23;100225.03;4192806;28;20404;-73
2022/02/26 09:16:38;;;;;;;19.67;6.53;;;;;;;2.73;76.83;100237.88;4184227;28;20377;-73
2022/02/26 09:18:41;;;;;;;17.35;5.80;;;;;;;2.79;75.95;100236.72;4190978;28;20051;-73
2022/02/26 09:20:42;;;;;;;18.70;4.82;;;;;;;2.83;75.16;100238.91;4184812;28;20099;-72
2022/02/26 09:22:42;;;;;;;14.15;4.78;;;;;;;2.77;75.80;100238.94;4187164;28;20396;-73
2022/02/26 09:24:43;;;;;;;16.92;6.47;;;;;;;2.71;75.55;100250.97;4185977;28;20108;-73
2022/02/26 09:26:43;;;;;;;15.38;5.10;;;;;;;2.70;75.95;100243.06;4185792;28;20078;-72
2022/02/26 09:28:44;;;;;;;27.38;10.15;;;;;;;2.61;76.47;100245.59;4194281;28;20393;-73
2022/02/26 09:30:45;;;;;;;22.95;7.28;;;;;;;2.75;76.63;100256.72;4185062;28;20086;-73